Berne, Minnesota
Current Conditions -  °F | °C
As of 2:54 PM on Friday 19 Dec 2014 (Local Time) from KTOB Reporting Station
Haze Haze  
Wind Chill: 20°   Ceiling: 1100
Heat Index: 28°   Visibility: 5mi
Dew Point: 27°   Wind: 9mph
Humidity: 93%   Direction: 160°SSE
Pressure: 30.18"   Gusts: NA
Location:  44.1528°N, 92.8919°W
Report Text: KTOB 192054Z AUTO 16008KT 5SM BR OVC011 M02/M03 A3018 RMK AO2
Loading
Personal Weather Stations






























Interactive Weather Map New forecast layout! Learn more

10-Day Weather Forecast

Advertisements
Track Severe Weather on mobile